sensor_id;sensor_type;location;lat;lon;timestamp;temperature;humidity
46319;DHT22;32042;50.916;2.926;2022-11-15T00:00:28;10.50;99.90
46319;DHT22;32042;50.916;2.926;2022-11-15T00:02:54;10.50;99.90
46319;DHT22;32042;50.916;2.926;2022-11-15T00:05:20;10.50;99.90
46319;DHT22;32042;50.916;2.926;2022-11-15T00:07:46;10.50;99.90
46319;DHT22;32042;50.916;2.926;2022-11-15T00:10:12;10.60;99.90
46319;DHT22;32042;50.916;2.926;2022-11-15T00:12:38;10.50;99.90
46319;DHT22;32042;50.916;2.926;2022-11-15T00:15:04;10.50;99.90
46319;DHT22;32042;50.916;2.926;2022-11-15T00:17:30;10.60;99.90
46319;DHT22;32042;50.916;2.926;2022-11-15T00:19:55;10.60;99.90
46319;DHT22;32042;50.916;2.926;2022-11-15T00:22:21;10.60;99.90
46319;DHT22;32042;50.916;2.926;2022-11-15T00:24:47;10.60;99.90
46319;DHT22;32042;50.916;2.926;2022-11-15T00:27:13;10.60;99.90
46319;DHT22;32042;50.916;2.926;2022-11-15T00:29:39;10.60;99.90
46319;DHT22;32042;50.916;2.926;2022-11-15T00:32:09;10.70;99.90
46319;DHT22;32042;50.916;2.926;2022-11-15T00:34:35;10.70;99.90
46319;DHT22;32042;50.916;2.926;2022-11-15T00:37:01;10.70;99.90
46319;DHT22;32042;50.916;2.926;2022-11-15T00:39:26;10.70;99.90
46319;DHT22;32042;50.916;2.926;2022-11-15T00:41:52;10.70;99.90
46319;DHT22;32042;50.916;2.926;2022-11-15T00:44:17;10.80;99.90
46319;DHT22;32042;50.916;2.926;2022-11-15T00:46:43;10.80;99.90
46319;DHT22;32042;50.916;2.926;2022-11-15T00:49:09;10.80;99.90
46319;DHT22;32042;50.916;2.926;2022-11-15T00:51:34;10.80;99.90
46319;DHT22;32042;50.916;2.926;2022-11-15T00:54:00;10.80;99.90
46319;DHT22;32042;50.916;2.926;2022-11-15T00:56:26;10.80;99.90
46319;DHT22;32042;50.916;2.926;2022-11-15T00:58:52;10.80;99.90
46319;DHT22;32042;50.916;2.926;2022-11-15T01:01:18;10.80;99.90
46319;DHT22;32042;50.916;2.926;2022-11-15T01:03:44;10.80;99.90
46319;DHT22;32042;50.916;2.926;2022-11-15T01:06:10;10.80;99.90
46319;DHT22;32042;50.916;2.926;2022-11-15T01:08:39;10.80;99.90
46319;DHT22;32042;50.916;2.926;2022-11-15T01:11:07;10.80;99.90
46319;DHT22;32042;50.916;2.926;2022-11-15T01:13:35;10.90;99.90
46319;DHT22;32042;50.916;2.926;2022-11-15T01:18:36;10.90;99.90
46319;DHT22;32042;50.916;2.926;2022-11-15T01:21:10;10.80;99.90
46319;DHT22;32042;50.916;2.926;2022-11-15T01:23:37;10.90;99.90
46319;DHT22;32042;50.916;2.926;2022-11-15T01:26:05;10.80;99.90
46319;DHT22;32042;50.916;2.926;2022-11-15T01:28:35;10.90;99.90
46319;DHT22;32042;50.916;2.926;2022-11-15T01:31:03;10.80;99.90
46319;DHT22;32042;50.916;2.926;2022-11-15T01:33:29;10.80;99.90
46319;DHT22;32042;50.916;2.926;2022-11-15T01:35:55;10.80;99.90
46319;DHT22;32042;50.916;2.926;2022-11-15T01:38:21;10.80;99.90
46319;DHT22;32042;50.916;2.926;2022-11-15T01:40:48;10.80;99.90
46319;DHT22;32042;50.916;2.926;2022-11-15T01:43:25;10.70;99.90
46319;DHT22;32042;50.916;2.926;2022-11-15T01:45:56;10.80;99.90
46319;DHT22;32042;50.916;2.926;2022-11-15T01:48:31;10.70;99.90
46319;DHT22;32042;50.916;2.926;2022-11-15T01:51:02;10.70;99.90
46319;DHT22;32042;50.916;2.926;2022-11-15T01:53:29;10.70;99.90
46319;DHT22;32042;50.916;2.926;2022-11-15T01:55:57;10.70;99.90
46319;DHT22;32042;50.916;2.926;2022-11-15T01:58:24;10.70;99.90
46319;DHT22;32042;50.916;2.926;2022-11-15T02:00:50;10.70;99.90
46319;DHT22;32042;50.916;2.926;2022-11-15T02:03:17;10.70;99.90
46319;DHT22;32042;50.916;2.926;2022-11-15T02:05:43;10.60;99.90
46319;DHT22;32042;50.916;2.926;2022-11-15T02:08:09;10.50;99.90
46319;DHT22;32042;50.916;2.926;2022-11-15T02:10:47;10.50;99.90
46319;DHT22;32042;50.916;2.926;2022-11-15T02:13:16;10.50;99.90
46319;DHT22;32042;50.916;2.926;2022-11-15T02:16:06;10.40;99.90
46319;DHT22;32042;50.916;2.926;2022-11-15T02:18:41;10.40;99.90
46319;DHT22;32042;50.916;2.926;2022-11-15T02:27:15;10.20;99.90
46319;DHT22;32042;50.916;2.926;2022-11-15T02:30:27;10.20;99.90
46319;DHT22;32042;50.916;2.926;2022-11-15T02:33:27;10.20;99.90
46319;DHT22;32042;50.916;2.926;2022-11-15T02:36:09;10.20;99.90
46319;DHT22;32042;50.916;2.926;2022-11-15T02:42:01;10.10;99.90
46319;DHT22;32042;50.916;2.926;2022-11-15T02:44:30;10.10;99.90
46319;DHT22;32042;50.916;2.926;2022-11-15T02:47:01;10.10;99.90
46319;DHT22;32042;50.916;2.926;2022-11-15T02:49:45;10.00;99.90
46319;DHT22;32042;50.916;2.926;2022-11-15T02:52:17;10.00;99.90
46319;DHT22;32042;50.916;2.926;2022-11-15T02:54:52;10.00;99.90
46319;DHT22;32042;50.916;2.926;2022-11-15T02:57:19;9.90;99.90
46319;DHT22;32042;50.916;2.926;2022-11-15T03:00:06;9.90;99.90
46319;DHT22;32042;50.916;2.926;2022-11-15T03:05:44;9.90;99.90
46319;DHT22;32042;50.916;2.926;2022-11-15T03:08:43;9.80;99.90
46319;DHT22;32042;50.916;2.926;2022-11-15T03:11:15;9.70;99.90
46319;DHT22;32042;50.916;2.926;2022-11-15T03:16:38;9.70;99.90
46319;DHT22;32042;50.916;2.926;2022-11-15T03:19:37;9.60;99.90
46319;DHT22;32042;50.916;2.926;2022-11-15T03:22:07;9.60;99.90
46319;DHT22;32042;50.916;2.926;2022-11-15T03:24:36;9.60;99.90
46319;DHT22;32042;50.916;2.926;2022-11-15T03:27:06;9.60;99.90
46319;DHT22;32042;50.916;2.926;2022-11-15T03:29:43;9.50;99.90
46319;DHT22;32042;50.916;2.926;2022-11-15T03:32:14;9.60;99.90
46319;DHT22;32042;50.916;2.926;2022-11-15T03:34:41;9.50;99.90
46319;DHT22;32042;50.916;2.926;2022-11-15T03:37:11;9.50;99.90
46319;DHT22;32042;50.916;2.926;2022-11-15T03:39:37;9.50;99.90
46319;DHT22;32042;50.916;2.926;2022-11-15T03:42:21;9.50;99.90
46319;DHT22;32042;50.916;2.926;2022-11-15T03:47:39;9.40;99.90
46319;DHT22;32042;50.916;2.926;2022-11-15T03:50:15;9.40;99.90
46319;DHT22;32042;50.916;2.926;2022-11-15T03:52:42;9.40;99.90
46319;DHT22;32042;50.916;2.926;2022-11-15T03:55:14;9.30;99.90
46319;DHT22;32042;50.916;2.926;2022-11-15T03:57:40;9.30;99.90
46319;DHT22;32042;50.916;2.926;2022-11-15T04:00:07;9.30;99.90
46319;DHT22;32042;50.916;2.926;2022-11-15T04:02:32;9.30;99.90
46319;DHT22;32042;50.916;2.926;2022-11-15T04:04:58;9.20;99.90
46319;DHT22;32042;50.916;2.926;2022-11-15T04:07:24;9.20;99.90
46319;DHT22;32042;50.916;2.926;2022-11-15T04:09:49;9.20;99.90
46319;DHT22;32042;50.916;2.926;2022-11-15T04:12:31;9.20;99.90
46319;DHT22;32042;50.916;2.926;2022-11-15T04:15:00;9.10;99.90
46319;DHT22;32042;50.916;2.926;2022-11-15T04:20:31;9.00;99.90
46319;DHT22;32042;50.916;2.926;2022-11-15T04:23:21;9.00;99.90
46319;DHT22;32042;50.916;2.926;2022-11-15T04:26:12;9.00;99.90
46319;DHT22;32042;50.916;2.926;2022-11-15T04:28:38;8.90;99.90
46319;DHT22;32042;50.916;2.926;2022-11-15T04:31:23;8.90;99.90
46319;DHT22;32042;50.916;2.926;2022-11-15T04:33:49;8.90;99.90
46319;DHT22;32042;50.916;2.926;2022-11-15T04:36:14;8.80;99.90
46319;DHT22;32042;50.916;2.926;2022-11-15T04:38:59;8.80;99.90
46319;DHT22;32042;50.916;2.926;2022-11-15T04:41:24;8.80;99.90
46319;DHT22;32042;50.916;2.926;2022-11-15T04:43:50;8.80;99.90
46319;DHT22;32042;50.916;2.926;2022-11-15T04:46:16;8.80;99.90
46319;DHT22;32042;50.916;2.926;2022-11-15T04:48:42;8.80;99.90
46319;DHT22;32042;50.916;2.926;2022-11-15T04:51:08;8.70;99.90
46319;DHT22;32042;50.916;2.926;2022-11-15T04:53:34;8.70;99.90
46319;DHT22;32042;50.916;2.926;2022-11-15T04:55:59;8.70;99.90
46319;DHT22;32042;50.916;2.926;2022-11-15T04:58:25;8.70;99.90
46319;DHT22;32042;50.916;2.926;2022-11-15T05:00:50;8.70;99.90
46319;DHT22;32042;50.916;2.926;2022-11-15T05:03:16;8.60;99.90
46319;DHT22;32042;50.916;2.926;2022-11-15T05:06:01;8.60;99.90
46319;DHT22;32042;50.916;2.926;2022-11-15T05:08:26;8.60;99.90
46319;DHT22;32042;50.916;2.926;2022-11-15T05:10:52;8.60;99.90
46319;DHT22;32042;50.916;2.926;2022-11-15T05:13:18;8.60;99.90
46319;DHT22;32042;50.916;2.926;2022-11-15T05:15:43;8.60;99.90
46319;DHT22;32042;50.916;2.926;2022-11-15T05:18:10;8.60;99.90
46319;DHT22;32042;50.916;2.926;2022-11-15T05:20:35;8.60;99.90
46319;DHT22;32042;50.916;2.926;2022-11-15T05:23:01;8.50;99.90
46319;DHT22;32042;50.916;2.926;2022-11-15T05:25:27;8.50;99.90
46319;DHT22;32042;50.916;2.926;2022-11-15T05:27:53;8.50;99.90
46319;DHT22;32042;50.916;2.926;2022-11-15T05:30:19;8.50;99.90
46319;DHT22;32042;50.916;2.926;2022-11-15T05:32:45;8.50;99.90
46319;DHT22;32042;50.916;2.926;2022-11-15T05:35:18;8.50;99.90
46319;DHT22;32042;50.916;2.926;2022-11-15T05:37:45;8.50;99.90
46319;DHT22;32042;50.916;2.926;2022-11-15T05:40:11;8.50;99.90
46319;DHT22;32042;50.916;2.926;2022-11-15T05:42:37;8.50;99.90
46319;DHT22;32042;50.916;2.926;2022-11-15T05:45:05;8.50;99.90
46319;DHT22;32042;50.916;2.926;2022-11-15T05:47:31;8.50;99.90
46319;DHT22;32042;50.916;2.926;2022-11-15T05:49:58;8.50;99.90
46319;DHT22;32042;50.916;2.926;2022-11-15T05:52:28;8.50;99.90
46319;DHT22;32042;50.916;2.926;2022-11-15T05:54:56;8.50;99.90
46319;DHT22;32042;50.916;2.926;2022-11-15T05:57:24;8.50;99.90
46319;DHT22;32042;50.916;2.926;2022-11-15T05:59:49;8.40;99.90
46319;DHT22;32042;50.916;2.926;2022-11-15T06:02:16;8.40;99.90
46319;DHT22;32042;50.916;2.926;2022-11-15T06:04:41;8.50;99.90
46319;DHT22;32042;50.916;2.926;2022-11-15T06:07:07;8.40;99.90
46319;DHT22;32042;50.916;2.926;2022-11-15T06:09:33;8.40;99.90
46319;DHT22;32042;50.916;2.926;2022-11-15T06:11:58;8.40;99.90
46319;DHT22;32042;50.916;2.926;2022-11-15T06:14:24;8.40;99.90
46319;DHT22;32042;50.916;2.926;2022-11-15T06:16:50;8.40;99.90
46319;DHT22;32042;50.916;2.926;2022-11-15T06:19:15;8.40;99.90
46319;DHT22;32042;50.916;2.926;2022-11-15T06:21:42;8.40;99.90
46319;DHT22;32042;50.916;2.926;2022-11-15T06:24:07;8.40;99.90
46319;DHT22;32042;50.916;2.926;2022-11-15T06:26:33;8.40;99.90
46319;DHT22;32042;50.916;2.926;2022-11-15T06:28:59;8.40;99.90
46319;DHT22;32042;50.916;2.926;2022-11-15T06:31:24;8.40;99.90
46319;DHT22;32042;50.916;2.926;2022-11-15T06:33:50;8.40;99.90
46319;DHT22;32042;50.916;2.926;2022-11-15T06:36:16;8.40;99.90
46319;DHT22;32042;50.916;2.926;2022-11-15T06:38:43;8.40;99.90
46319;DHT22;32042;50.916;2.926;2022-11-15T06:41:10;8.40;99.90
46319;DHT22;32042;50.916;2.926;2022-11-15T06:43:37;8.40;99.90
46319;DHT22;32042;50.916;2.926;2022-11-15T06:46:04;8.50;99.90
46319;DHT22;32042;50.916;2.926;2022-11-15T06:48:30;8.40;99.90
46319;DHT22;32042;50.916;2.926;2022-11-15T06:51:01;8.40;99.90
46319;DHT22;32042;50.916;2.926;2022-11-15T06:53:27;8.40;99.90
46319;DHT22;32042;50.916;2.926;2022-11-15T06:55:56;8.40;99.90
46319;DHT22;32042;50.916;2.926;2022-11-15T06:58:23;8.40;99.90
46319;DHT22;32042;50.916;2.926;2022-11-15T07:00:49;8.40;99.90
46319;DHT22;32042;50.916;2.926;2022-11-15T07:03:14;8.40;99.90
46319;DHT22;32042;50.916;2.926;2022-11-15T07:05:40;8.40;99.90
46319;DHT22;32042;50.916;2.926;2022-11-15T07:08:05;8.40;99.90
46319;DHT22;32042;50.916;2.926;2022-11-15T07:10:31;8.40;99.90
46319;DHT22;32042;50.916;2.926;2022-11-15T07:12:57;8.40;99.90
46319;DHT22;32042;50.916;2.926;2022-11-15T07:15:25;8.50;99.90
46319;DHT22;32042;50.916;2.926;2022-11-15T07:17:50;8.50;99.90
46319;DHT22;32042;50.916;2.926;2022-11-15T07:20:17;8.50;99.90
46319;DHT22;32042;50.916;2.926;2022-11-15T07:22:43;8.50;99.90
46319;DHT22;32042;50.916;2.926;2022-11-15T07:25:11;8.50;99.90
46319;DHT22;32042;50.916;2.926;2022-11-15T07:27:36;8.50;99.90
46319;DHT22;32042;50.916;2.926;2022-11-15T07:30:02;8.50;99.90
46319;DHT22;32042;50.916;2.926;2022-11-15T07:32:28;8.50;99.90
46319;DHT22;32042;50.916;2.926;2022-11-15T07:34:54;8.50;99.90
46319;DHT22;32042;50.916;2.926;2022-11-15T07:37:20;8.60;99.90
46319;DHT22;32042;50.916;2.926;2022-11-15T07:39:45;8.60;99.90
46319;DHT22;32042;50.916;2.926;2022-11-15T07:42:11;8.70;99.90
46319;DHT22;32042;50.916;2.926;2022-11-15T07:44:55;8.70;99.90
46319;DHT22;32042;50.916;2.926;2022-11-15T07:47:21;8.70;99.90
46319;DHT22;32042;50.916;2.926;2022-11-15T07:49:47;8.80;99.90
46319;DHT22;32042;50.916;2.926;2022-11-15T07:52:13;8.80;99.90
46319;DHT22;32042;50.916;2.926;2022-11-15T07:54:39;8.80;99.90
46319;DHT22;32042;50.916;2.926;2022-11-15T07:57:05;8.80;99.90
46319;DHT22;32042;50.916;2.926;2022-11-15T07:59:32;8.90;99.90
46319;DHT22;32042;50.916;2.926;2022-11-15T08:01:58;8.90;99.90
46319;DHT22;32042;50.916;2.926;2022-11-15T08:04:23;8.80;99.90
46319;DHT22;32042;50.916;2.926;2022-11-15T08:06:49;8.90;99.90
46319;DHT22;32042;50.916;2.926;2022-11-15T08:09:15;8.90;99.90
46319;DHT22;32042;50.916;2.926;2022-11-15T08:11:40;8.90;99.90
46319;DHT22;32042;50.916;2.926;2022-11-15T08:14:06;9.00;99.90
46319;DHT22;32042;50.916;2.926;2022-11-15T08:16:32;9.00;99.90
46319;DHT22;32042;50.916;2.926;2022-11-15T08:18:57;9.10;99.90
46319;DHT22;32042;50.916;2.926;2022-11-15T08:21:23;9.20;99.90
46319;DHT22;32042;50.916;2.926;2022-11-15T08:23:50;9.20;99.90
46319;DHT22;32042;50.916;2.926;2022-11-15T08:26:17;9.30;99.90
46319;DHT22;32042;50.916;2.926;2022-11-15T08:28:43;9.40;99.90
46319;DHT22;32042;50.916;2.926;2022-11-15T08:31:17;9.40;99.90
46319;DHT22;32042;50.916;2.926;2022-11-15T08:33:43;9.40;99.90
46319;DHT22;32042;50.916;2.926;2022-11-15T08:36:13;9.50;99.90
46319;DHT22;32042;50.916;2.926;2022-11-15T08:38:40;9.50;99.90
46319;DHT22;32042;50.916;2.926;2022-11-15T08:41:06;9.50;99.90
46319;DHT22;32042;50.916;2.926;2022-11-15T08:43:32;9.60;99.90
46319;DHT22;32042;50.916;2.926;2022-11-15T08:45:58;9.60;99.90
46319;DHT22;32042;50.916;2.926;2022-11-15T08:48:24;9.70;99.90
46319;DHT22;32042;50.916;2.926;2022-11-15T08:50:54;9.70;99.90
46319;DHT22;32042;50.916;2.926;2022-11-15T08:53:20;9.70;99.90
46319;DHT22;32042;50.916;2.926;2022-11-15T08:55:46;9.70;99.90
46319;DHT22;32042;50.916;2.926;2022-11-15T08:58:12;9.80;99.90
46319;DHT22;32042;50.916;2.926;2022-11-15T09:00:38;9.80;99.90
46319;DHT22;32042;50.916;2.926;2022-11-15T09:03:04;9.80;99.90
46319;DHT22;32042;50.916;2.926;2022-11-15T09:05:31;9.90;99.90
46319;DHT22;32042;50.916;2.926;2022-11-15T09:07:56;10.00;99.90
46319;DHT22;32042;50.916;2.926;2022-11-15T09:10:22;10.00;99.90
46319;DHT22;32042;50.916;2.926;2022-11-15T09:12:48;10.10;99.90
46319;DHT22;32042;50.916;2.926;2022-11-15T09:15:15;10.20;99.90
46319;DHT22;32042;50.916;2.926;2022-11-15T09:17:41;10.20;99.90
46319;DHT22;32042;50.916;2.926;2022-11-15T09:20:08;10.30;99.90
46319;DHT22;32042;50.916;2.926;2022-11-15T09:22:34;10.30;99.90
46319;DHT22;32042;50.916;2.926;2022-11-15T09:25:00;10.40;99.90
46319;DHT22;32042;50.916;2.926;2022-11-15T09:27:29;10.30;99.90
46319;DHT22;32042;50.916;2.926;2022-11-15T09:29:55;10.40;99.90
46319;DHT22;32042;50.916;2.926;2022-11-15T09:32:21;10.40;99.90
46319;DHT22;32042;50.916;2.926;2022-11-15T09:34:49;10.40;99.90
46319;DHT22;32042;50.916;2.926;2022-11-15T09:37:14;10.40;99.90
46319;DHT22;32042;50.916;2.926;2022-11-15T09:39:40;10.50;99.90
46319;DHT22;32042;50.916;2.926;2022-11-15T09:47:40;10.60;99.90
46319;DHT22;32042;50.916;2.926;2022-11-15T09:50:14;10.60;99.90
46319;DHT22;32042;50.916;2.926;2022-11-15T09:52:43;10.70;99.90
46319;DHT22;32042;50.916;2.926;2022-11-15T09:55:11;10.70;99.90
46319;DHT22;32042;50.916;2.926;2022-11-15T09:57:54;10.70;99.90
46319;DHT22;32042;50.916;2.926;2022-11-15T10:00:33;10.80;99.90
46319;DHT22;32042;50.916;2.926;2022-11-15T10:03:26;10.80;99.90
46319;DHT22;32042;50.916;2.926;2022-11-15T10:05:56;10.90;99.90
46319;DHT22;32042;50.916;2.926;2022-11-15T10:11:01;11.00;99.90
46319;DHT22;32042;50.916;2.926;2022-11-15T10:13:32;11.00;99.90
46319;DHT22;32042;50.916;2.926;2022-11-15T10:16:33;11.00;99.90
46319;DHT22;32042;50.916;2.926;2022-11-15T10:24:28;11.20;99.90
46319;DHT22;32042;50.916;2.926;2022-11-15T10:26:55;11.20;99.90
46319;DHT22;32042;50.916;2.926;2022-11-15T10:29:23;11.30;99.90
46319;DHT22;32042;50.916;2.926;2022-11-15T10:31:49;11.30;99.90
46319;DHT22;32042;50.916;2.926;2022-11-15T10:34:17;11.30;99.90
46319;DHT22;32042;50.916;2.926;2022-11-15T10:39:13;11.30;99.90
46319;DHT22;32042;50.916;2.926;2022-11-15T10:41:41;11.30;99.90
46319;DHT22;32042;50.916;2.926;2022-11-15T10:46:34;11.30;99.90
46319;DHT22;32042;50.916;2.926;2022-11-15T10:49:21;11.30;99.90
46319;DHT22;32042;50.916;2.926;2022-11-15T10:51:55;11.40;99.90
46319;DHT22;32042;50.916;2.926;2022-11-15T10:56:55;11.40;99.90
46319;DHT22;32042;50.916;2.926;2022-11-15T10:59:33;11.40;99.90
46319;DHT22;32042;50.916;2.926;2022-11-15T11:02:01;11.50;99.90
46319;DHT22;32042;50.916;2.926;2022-11-15T11:04:26;11.50;99.90
46319;DHT22;32042;50.916;2.926;2022-11-15T11:06:54;11.50;99.90
46319;DHT22;32042;50.916;2.926;2022-11-15T11:09:31;11.60;99.90
46319;DHT22;32042;50.916;2.926;2022-11-15T11:11:57;11.60;99.90
46319;DHT22;32042;50.916;2.926;2022-11-15T11:14:34;11.70;99.90
46319;DHT22;32042;50.916;2.926;2022-11-15T11:17:11;11.80;99.90
46319;DHT22;32042;50.916;2.926;2022-11-15T11:31:17;11.90;99.90
46319;DHT22;32042;50.916;2.926;2022-11-15T11:37:27;11.80;99.90
46319;DHT22;32042;50.916;2.926;2022-11-15T11:42:11;11.80;99.90
46319;DHT22;32042;50.916;2.926;2022-11-15T11:47:24;11.80;99.90
46319;DHT22;32042;50.916;2.926;2022-11-15T11:50:11;11.80;99.90
46319;DHT22;32042;50.916;2.926;2022-11-15T11:58:02;11.90;99.90
46319;DHT22;32042;50.916;2.926;2022-11-15T12:00:29;11.90;99.90
46319;DHT22;32042;50.916;2.926;2022-11-15T12:05:51;11.90;99.90
46319;DHT22;32042;50.916;2.926;2022-11-15T12:08:45;11.80;99.90
46319;DHT22;32042;50.916;2.926;2022-11-15T12:11:28;11.90;99.90
46319;DHT22;32042;50.916;2.926;2022-11-15T12:14:00;11.90;99.90
46319;DHT22;32042;50.916;2.926;2022-11-15T12:16:28;11.90;99.90
46319;DHT22;32042;50.916;2.926;2022-11-15T12:18:58;11.90;99.90
46319;DHT22;32042;50.916;2.926;2022-11-15T12:21:41;11.90;99.90
46319;DHT22;32042;50.916;2.926;2022-11-15T12:24:15;11.90;99.90
46319;DHT22;32042;50.916;2.926;2022-11-15T12:26:49;11.90;99.90
46319;DHT22;32042;50.916;2.926;2022-11-15T12:29:20;11.80;99.90
46319;DHT22;32042;50.916;2.926;2022-11-15T12:31:53;11.80;99.90
46319;DHT22;32042;50.916;2.926;2022-11-15T12:36:49;11.70;99.90
46319;DHT22;32042;50.916;2.926;2022-11-15T12:39:16;11.70;99.90
46319;DHT22;32042;50.916;2.926;2022-11-15T12:41:44;11.70;99.90
46319;DHT22;32042;50.916;2.926;2022-11-15T12:59:53;11.50;99.90
46319;DHT22;32042;50.916;2.926;2022-11-15T13:02:33;11.50;99.90
46319;DHT22;32042;50.916;2.926;2022-11-15T13:07:57;11.50;99.90
46319;DHT22;32042;50.916;2.926;2022-11-15T13:12:54;11.50;99.90
46319;DHT22;32042;50.916;2.926;2022-11-15T13:17:54;11.50;99.90
46319;DHT22;32042;50.916;2.926;2022-11-15T13:20:29;11.40;99.90
46319;DHT22;32042;50.916;2.926;2022-11-15T13:30:50;11.40;99.90
46319;DHT22;32042;50.916;2.926;2022-11-15T13:33:26;11.40;99.90
46319;DHT22;32042;50.916;2.926;2022-11-15T13:38:45;11.30;99.90
46319;DHT22;32042;50.916;2.926;2022-11-15T13:41:22;11.40;99.90
46319;DHT22;32042;50.916;2.926;2022-11-15T13:43:49;11.30;99.90
46319;DHT22;32042;50.916;2.926;2022-11-15T13:46:31;11.30;99.90
46319;DHT22;32042;50.916;2.926;2022-11-15T13:49:08;11.30;99.90
46319;DHT22;32042;50.916;2.926;2022-11-15T13:51:53;11.30;99.90
46319;DHT22;32042;50.916;2.926;2022-11-15T13:59:35;11.30;99.90
46319;DHT22;32042;50.916;2.926;2022-11-15T14:02:13;11.20;99.90
46319;DHT22;32042;50.916;2.926;2022-11-15T14:04:51;11.30;99.90
46319;DHT22;32042;50.916;2.926;2022-11-15T14:07:20;11.20;99.90
46319;DHT22;32042;50.916;2.926;2022-11-15T14:09:46;11.20;99.90
46319;DHT22;32042;50.916;2.926;2022-11-15T14:14:53;11.20;99.90
46319;DHT22;32042;50.916;2.926;2022-11-15T14:17:32;11.20;99.90
46319;DHT22;32042;50.916;2.926;2022-11-15T14:19:58;11.20;99.90
46319;DHT22;32042;50.916;2.926;2022-11-15T14:22:29;11.20;99.90
46319;DHT22;32042;50.916;2.926;2022-11-15T14:25:16;11.20;99.90
46319;DHT22;32042;50.916;2.926;2022-11-15T14:27:44;11.20;99.90
46319;DHT22;32042;50.916;2.926;2022-11-15T14:30:16;11.20;99.90
46319;DHT22;32042;50.916;2.926;2022-11-15T14:32:45;11.20;99.90
46319;DHT22;32042;50.916;2.926;2022-11-15T14:35:20;11.20;99.90
46319;DHT22;32042;50.916;2.926;2022-11-15T14:37:46;11.20;99.90
46319;DHT22;32042;50.916;2.926;2022-11-15T14:40:17;11.20;99.90
46319;DHT22;32042;50.916;2.926;2022-11-15T14:42:45;11.20;99.90
46319;DHT22;32042;50.916;2.926;2022-11-15T14:45:17;11.20;99.90
46319;DHT22;32042;50.916;2.926;2022-11-15T14:47:43;11.20;99.90
46319;DHT22;32042;50.916;2.926;2022-11-15T14:50:20;11.20;99.90
46319;DHT22;32042;50.916;2.926;2022-11-15T14:52:47;11.20;99.90
46319;DHT22;32042;50.916;2.926;2022-11-15T14:55:32;11.20;99.90
46319;DHT22;32042;50.916;2.926;2022-11-15T14:58:01;11.20;99.90
46319;DHT22;32042;50.916;2.926;2022-11-15T15:00:31;11.20;99.90
46319;DHT22;32042;50.916;2.926;2022-11-15T15:02:57;11.20;99.90
46319;DHT22;32042;50.916;2.926;2022-11-15T15:05:43;11.20;99.90
46319;DHT22;32042;50.916;2.926;2022-11-15T15:08:10;11.20;99.90
46319;DHT22;32042;50.916;2.926;2022-11-15T15:10:43;11.20;99.90
46319;DHT22;32042;50.916;2.926;2022-11-15T15:13:19;11.20;99.90
46319;DHT22;32042;50.916;2.926;2022-11-15T15:15:46;11.20;99.90
46319;DHT22;32042;50.916;2.926;2022-11-15T15:18:12;11.20;99.90
46319;DHT22;32042;50.916;2.926;2022-11-15T15:20:39;11.20;99.90
46319;DHT22;32042;50.916;2.926;2022-11-15T15:23:09;11.20;99.90
46319;DHT22;32042;50.916;2.926;2022-11-15T15:25:39;11.20;99.90
46319;DHT22;32042;50.916;2.926;2022-11-15T15:28:05;11.30;99.90
46319;DHT22;32042;50.916;2.926;2022-11-15T15:30:31;11.30;99.90
46319;DHT22;32042;50.916;2.926;2022-11-15T15:32:57;11.30;99.90
46319;DHT22;32042;50.916;2.926;2022-11-15T15:35:30;11.30;99.90
46319;DHT22;32042;50.916;2.926;2022-11-15T15:37:57;11.30;99.90
46319;DHT22;32042;50.916;2.926;2022-11-15T15:40:24;11.30;99.90
46319;DHT22;32042;50.916;2.926;2022-11-15T15:42:50;11.30;99.90
46319;DHT22;32042;50.916;2.926;2022-11-15T15:45:17;11.30;99.90
46319;DHT22;32042;50.916;2.926;2022-11-15T15:47:50;11.30;99.90
46319;DHT22;32042;50.916;2.926;2022-11-15T15:52:42;11.40;99.90
46319;DHT22;32042;50.916;2.926;2022-11-15T15:55:08;11.40;99.90
46319;DHT22;32042;50.916;2.926;2022-11-15T15:57:34;11.40;99.90
46319;DHT22;32042;50.916;2.926;2022-11-15T15:59:59;11.40;99.90
46319;DHT22;32042;50.916;2.926;2022-11-15T16:02:25;11.40;99.90
46319;DHT22;32042;50.916;2.926;2022-11-15T16:04:51;11.40;99.90
46319;DHT22;32042;50.916;2.926;2022-11-15T16:07:21;11.40;99.90
46319;DHT22;32042;50.916;2.926;2022-11-15T16:09:49;11.40;99.90
46319;DHT22;32042;50.916;2.926;2022-11-15T16:12:34;11.40;99.90
46319;DHT22;32042;50.916;2.926;2022-11-15T16:15:01;11.40;99.90
46319;DHT22;32042;50.916;2.926;2022-11-15T16:17:38;11.40;99.90
46319;DHT22;32042;50.916;2.926;2022-11-15T16:20:05;11.40;99.90
46319;DHT22;32042;50.916;2.926;2022-11-15T16:22:31;11.40;99.90
46319;DHT22;32042;50.916;2.926;2022-11-15T16:24:57;11.40;99.90
46319;DHT22;32042;50.916;2.926;2022-11-15T16:27:23;11.50;99.90
46319;DHT22;32042;50.916;2.926;2022-11-15T16:29:49;11.40;99.90
46319;DHT22;32042;50.916;2.926;2022-11-15T16:32:15;11.50;99.90
46319;DHT22;32042;50.916;2.926;2022-11-15T16:34:41;11.50;99.90
46319;DHT22;32042;50.916;2.926;2022-11-15T16:37:23;11.50;99.90
46319;DHT22;32042;50.916;2.926;2022-11-15T16:39:49;11.50;99.90
46319;DHT22;32042;50.916;2.926;2022-11-15T16:42:15;11.50;99.90
46319;DHT22;32042;50.916;2.926;2022-11-15T16:44:41;11.50;99.90
46319;DHT22;32042;50.916;2.926;2022-11-15T16:47:18;11.50;99.90
46319;DHT22;32042;50.916;2.926;2022-11-15T16:49:44;11.50;99.90
46319;DHT22;32042;50.916;2.926;2022-11-15T16:52:10;11.50;99.90
46319;DHT22;32042;50.916;2.926;2022-11-15T16:54:36;11.50;99.90
46319;DHT22;32042;50.916;2.926;2022-11-15T16:57:02;11.50;99.90
46319;DHT22;32042;50.916;2.926;2022-11-15T16:59:27;11.50;99.90
46319;DHT22;32042;50.916;2.926;2022-11-15T17:01:55;11.50;99.90
46319;DHT22;32042;50.916;2.926;2022-11-15T17:04:20;11.50;99.90
46319;DHT22;32042;50.916;2.926;2022-11-15T17:06:47;11.50;99.90
46319;DHT22;32042;50.916;2.926;2022-11-15T17:09:18;11.50;99.90
46319;DHT22;32042;50.916;2.926;2022-11-15T17:11:44;11.50;99.90
46319;DHT22;32042;50.916;2.926;2022-11-15T17:14:11;11.50;99.90
46319;DHT22;32042;50.916;2.926;2022-11-15T17:16:37;11.50;99.90
46319;DHT22;32042;50.916;2.926;2022-11-15T17:19:14;11.50;99.90
46319;DHT22;32042;50.916;2.926;2022-11-15T17:21:40;11.50;99.90
46319;DHT22;32042;50.916;2.926;2022-11-15T17:24:07;11.50;99.90
46319;DHT22;32042;50.916;2.926;2022-11-15T17:26:32;11.50;99.90
46319;DHT22;32042;50.916;2.926;2022-11-15T17:28:58;11.50;99.90
46319;DHT22;32042;50.916;2.926;2022-11-15T17:31:26;11.50;99.90
46319;DHT22;32042;50.916;2.926;2022-11-15T17:33:52;11.50;99.90
46319;DHT22;32042;50.916;2.926;2022-11-15T17:36:18;11.50;99.90
46319;DHT22;32042;50.916;2.926;2022-11-15T17:38:44;11.50;99.90
46319;DHT22;32042;50.916;2.926;2022-11-15T17:41:15;11.60;99.90
46319;DHT22;32042;50.916;2.926;2022-11-15T17:43:41;11.60;99.90
46319;DHT22;32042;50.916;2.926;2022-11-15T17:46:13;11.50;99.90
46319;DHT22;32042;50.916;2.926;2022-11-15T17:48:39;11.50;99.90
46319;DHT22;32042;50.916;2.926;2022-11-15T17:51:10;11.60;99.90